Time;durP1;ratioP1;P1;durP2;ratioP2;P2;SDS_P1;SDS_P2;PMS_P1;PMS_P2;Temp;Humidity;BMP_temperature;BMP_pressure;BME280_temperature;BME280_humidity;BME280_pressure;Samples;Min_cycle;Max_cycle;Signal;HPM_P1;HPM_P2
2023/09/03 00:02:11;;;;;;;14.70;11.40;;;12.10;99.90;;;;;;4960894;28;20171;-84
2023/09/03 00:04:37;;;;;;;14.57;10.38;;;12.10;99.90;;;;;;4948839;28;20030;-83
2023/09/03 00:07:03;;;;;;;13.90;10.52;;;12.10;99.90;;;;;;4975951;28;20502;-84
2023/09/03 00:09:28;;;;;;;10.68;8.75;;;12.10;99.90;;;;;;4942220;28;20070;-84
2023/09/03 00:11:54;;;;;;;6.15;5.32;;;12.00;99.90;;;;;;4956164;28;20049;-84
2023/09/03 00:14:20;;;;;;;6.43;5.45;;;11.90;99.90;;;;;;4956885;28;20520;-84
2023/09/03 00:16:45;;;;;;;10.93;8.55;;;11.90;99.90;;;;;;4975880;28;20409;-83
2023/09/03 00:19:11;;;;;;;12.88;9.15;;;11.80;99.90;;;;;;4943045;28;20045;-84
2023/09/03 00:21:37;;;;;;;11.00;9.15;;;11.80;99.90;;;;;;4959359;28;20049;-84
2023/09/03 00:24:06;;;;;;;13.73;10.10;;;11.70;99.90;;;;;;4942643;28;20117;-84
2023/09/03 00:26:31;;;;;;;40.78;12.63;;;11.70;99.90;;;;;;4942050;28;20077;-85
2023/09/03 00:28:57;;;;;;;27.52;11.52;;;11.80;99.90;;;;;;4956546;28;20043;-84
2023/09/03 00:31:25;;;;;;;78.25;18.02;;;11.80;99.90;;;;;;4957459;28;20679;-84
2023/09/03 00:33:50;;;;;;;15.65;9.52;;;11.80;99.90;;;;;;4957982;28;20130;-84
2023/09/03 00:36:16;;;;;;;16.50;10.55;;;11.70;99.90;;;;;;4957439;28;20481;-84
2023/09/03 00:38:42;;;;;;;16.92;8.98;;;11.70;99.90;;;;;;4941937;28;20081;-84
2023/09/03 00:41:07;;;;;;;31.52;7.45;;;11.60;99.90;;;;;;4957330;28;20130;-84
2023/09/03 00:43:34;;;;;;;8.90;6.82;;;11.50;99.90;;;;;;4957246;28;20119;-84
2023/09/03 00:46:04;;;;;;;88.10;12.90;;;11.50;99.90;;;;;;4953772;28;20043;-84
2023/09/03 00:48:30;;;;;;;42.00;8.77;;;11.70;99.90;;;;;;4958116;28;20039;-84
2023/09/03 00:51:02;;;;;;;219.13;16.00;;;11.50;99.90;;;;;;4955952;28;20041;-83
2023/09/03 00:53:29;;;;;;;151.15;11.30;;;11.40;99.90;;;;;;4959370;28;20035;-84
2023/09/03 00:55:58;;;;;;;6.90;5.75;;;11.10;99.90;;;;;;4953706;28;20043;-84
2023/09/03 00:58:24;;;;;;;18.35;6.32;;;11.00;99.90;;;;;;4958561;28;20038;-84
2023/09/03 01:00:53;;;;;;;189.85;11.82;;;11.00;99.90;;;;;;4940757;28;20514;-84
2023/09/03 01:03:19;;;;;;;6.15;5.55;;;10.90;99.90;;;;;;4960639;28;20121;-84
2023/09/03 01:05:45;;;;;;;229.55;15.65;;;11.00;99.90;;;;;;4973797;28;20258;-84
2023/09/03 01:08:11;;;;;;;7.53;6.75;;;11.00;99.90;;;;;;4952109;28;20125;-84
2023/09/03 01:10:44;;;;;;;6.38;5.78;;;11.20;99.90;;;;;;4957517;28;20050;-84
2023/09/03 01:13:25;;;;;;;7.55;6.70;;;11.20;99.90;;;;;;4941951;28;20682;-84
2023/09/03 01:15:53;;;;;;;8.52;7.63;;;11.20;99.90;;;;;;4958975;28;20656;-85
2023/09/03 01:18:23;;;;;;;7.75;6.22;;;11.30;99.90;;;;;;4963577;28;20043;-85
2023/09/03 01:21:12;;;;;;;8.38;6.35;;;11.30;99.90;;;;;;4962929;28;20050;-84
2023/09/03 01:24:01;;;;;;;9.38;7.50;;;11.20;99.90;;;;;;4967526;28;20046;-84
2023/09/03 01:26:46;;;;;;;8.65;6.97;;;11.30;99.90;;;;;;4964717;28;20034;-85
2023/09/03 01:29:15;;;;;;;8.90;7.50;;;11.30;99.90;;;;;;4963750;28;20458;-84
2023/09/03 01:31:43;;;;;;;8.45;7.13;;;11.30;99.90;;;;;;4952206;28;20050;-85
2023/09/03 01:34:09;;;;;;;9.55;7.03;;;11.30;99.90;;;;;;4964366;28;20050;-85
2023/09/03 01:36:37;;;;;;;11.20;9.10;;;11.30;99.90;;;;;;4948505;28;20469;-84
2023/09/03 01:39:03;;;;;;;10.27;8.20;;;11.40;99.90;;;;;;4950127;28;20118;-84
2023/09/03 01:41:34;;;;;;;10.40;8.40;;;11.30;99.90;;;;;;4963469;28;20396;-84
2023/09/03 01:44:02;;;;;;;11.93;8.50;;;11.40;99.90;;;;;;4965014;28;20031;-86
2023/09/03 01:46:59;;;;;;;11.63;8.68;;;11.40;99.90;;;;;;4960940;28;20508;-86
2023/09/03 01:49:42;;;;;;;12.25;9.73;;;11.50;99.90;;;;;;4981360;28;20109;-86
2023/09/03 01:52:38;;;;;;;12.93;10.40;;;11.60;99.90;;;;;;4964603;28;20148;-85
2023/09/03 01:55:08;;;;;;;16.65;10.90;;;11.60;99.90;;;;;;4968250;28;20466;-86
2023/09/03 01:57:40;;;;;;;12.57;10.18;;;11.70;99.90;;;;;;4947550;28;20066;-86
2023/09/03 02:00:09;;;;;;;14.90;10.68;;;11.70;99.90;;;;;;4974650;28;20047;-87
2023/09/03 02:02:37;;;;;;;13.77;10.13;;;11.70;99.90;;;;;;4947311;28;20398;-86
2023/09/03 02:05:06;;;;;;;12.70;9.30;;;11.60;99.90;;;;;;4966836;28;20368;-86
2023/09/03 02:07:31;;;;;;;13.77;10.80;;;11.60;99.90;;;;;;4966766;28;20063;-87
2023/09/03 02:09:57;;;;;;;14.55;11.40;;;11.70;99.90;;;;;;4986402;28;20516;-87
2023/09/03 02:12:25;;;;;;;15.48;12.55;;;11.80;99.90;;;;;;4965285;28;20050;-87
2023/09/03 02:14:52;;;;;;;15.98;12.00;;;11.80;99.90;;;;;;4982689;28;20038;-86
2023/09/03 02:17:21;;;;;;;13.40;9.80;;;11.90;99.90;;;;;;4964688;28;20038;-86
2023/09/03 02:19:51;;;;;;;11.50;9.35;;;11.80;99.90;;;;;;4959910;28;20461;-87
2023/09/03 02:22:17;;;;;;;85.03;14.00;;;11.50;99.90;;;;;;4952853;28;20665;-86
2023/09/03 02:24:43;;;;;;;115.45;14.90;;;11.50;99.90;;;;;;4979491;28;20038;-86
2023/09/03 02:27:10;;;;;;;36.42;9.75;;;11.30;99.90;;;;;;4947642;28;20034;-86
2023/09/03 02:29:39;;;;;;;63.60;8.73;;;11.30;99.90;;;;;;4962065;28;20092;-86
2023/09/03 02:32:06;;;;;;;65.20;11.18;;;11.30;99.90;;;;;;4966288;28;20049;-86
2023/09/03 02:34:31;;;;;;;21.80;9.30;;;11.20;99.90;;;;;;4948373;28;20046;-86
2023/09/03 02:36:57;;;;;;;10.55;7.60;;;11.10;99.90;;;;;;4961958;28;20041;-87
2023/09/03 02:39:23;;;;;;;9.38;7.38;;;11.10;99.90;;;;;;4948674;28;20458;-87
2023/09/03 02:41:48;;;;;;;8.07;7.28;;;11.10;99.90;;;;;;4977263;28;20034;-87
2023/09/03 02:44:14;;;;;;;9.98;7.85;;;11.10;99.90;;;;;;4965596;28;20169;-86
2023/09/03 02:46:40;;;;;;;9.75;8.57;;;11.10;99.90;;;;;;4961715;28;20516;-86
2023/09/03 02:49:06;;;;;;;9.82;7.82;;;11.10;99.90;;;;;;4946365;28;20482;-87
2023/09/03 02:51:32;;;;;;;8.68;6.80;;;11.10;99.90;;;;;;4964540;28;20121;-87
2023/09/03 02:53:58;;;;;;;13.00;8.95;;;11.00;99.90;;;;;;4979380;28;20046;-86
2023/09/03 02:56:23;;;;;;;11.48;9.43;;;11.20;99.90;;;;;;4977956;28;20385;-87
2023/09/03 02:58:50;;;;;;;16.42;9.18;;;11.30;99.90;;;;;;4964761;28;20042;-86
2023/09/03 03:01:18;;;;;;;10.43;8.40;;;11.30;99.90;;;;;;4960251;28;20034;-86
2023/09/03 03:03:45;;;;;;;10.60;8.20;;;11.30;99.90;;;;;;4962510;28;20489;-86
2023/09/03 03:06:14;;;;;;;7.60;6.35;;;11.20;99.90;;;;;;4961895;28;20046;-86
2023/09/03 03:08:40;;;;;;;9.10;7.30;;;11.00;99.90;;;;;;4965193;28;20058;-87
2023/09/03 03:11:07;;;;;;;22.15;10.45;;;11.00;99.90;;;;;;4963668;28;20039;-86
2023/09/03 03:13:34;;;;;;;9.02;6.78;;;11.10;99.90;;;;;;4962397;28;20045;-86
2023/09/03 03:16:06;;;;;;;11.68;9.07;;;11.00;99.90;;;;;;4976230;28;20046;-86
2023/09/03 03:18:35;;;;;;;8.07;7.05;;;11.00;99.90;;;;;;4950613;28;20117;-86
2023/09/03 03:21:08;;;;;;;8.35;7.00;;;11.00;99.90;;;;;;4941933;28;20042;-87
2023/09/03 03:23:35;;;;;;;27.23;8.80;;;10.80;99.90;;;;;;4963341;28;20046;-88
2023/09/03 03:26:01;;;;;;;8.75;7.47;;;10.80;99.90;;;;;;4947015;28;20049;-86
2023/09/03 03:28:30;;;;;;;9.95;8.77;;;10.80;99.90;;;;;;4959381;28;20329;-87
2023/09/03 03:30:56;;;;;;;18.02;9.55;;;10.80;99.90;;;;;;4977252;28;20034;-86
2023/09/03 03:33:21;;;;;;;13.15;9.63;;;10.90;99.90;;;;;;4980080;28;20084;-86
2023/09/03 03:35:47;;;;;;;9.60;8.70;;;10.90;99.90;;;;;;4962876;28;20053;-86
2023/09/03 03:38:12;;;;;;;6.95;6.25;;;10.70;99.90;;;;;;4943178;28;20065;-87
2023/09/03 03:40:38;;;;;;;8.68;7.88;;;10.70;99.90;;;;;;4946586;28;20513;-87
2023/09/03 03:43:04;;;;;;;10.15;6.75;;;10.70;99.90;;;;;;4977591;28;20137;-87
2023/09/03 03:45:32;;;;;;;8.38;7.40;;;10.70;99.90;;;;;;4957741;28;20057;-87
2023/09/03 03:47:58;;;;;;;8.27;7.47;;;10.70;99.90;;;;;;4945425;28;20130;-87
2023/09/03 03:50:23;;;;;;;6.90;5.68;;;10.70;99.90;;;;;;4961759;28;20128;-86
2023/09/03 03:52:49;;;;;;;7.38;6.57;;;10.70;99.90;;;;;;4978424;28;20049;-87
2023/09/03 03:55:15;;;;;;;8.95;7.97;;;10.70;99.90;;;;;;4961881;28;20038;-87
2023/09/03 03:57:41;;;;;;;9.90;8.63;;;10.70;99.90;;;;;;4934383;28;20401;-86
2023/09/03 04:00:07;;;;;;;11.15;9.57;;;10.70;99.90;;;;;;4959346;28;20598;-86
2023/09/03 04:02:33;;;;;;;8.85;7.68;;;10.70;99.90;;;;;;4977370;28;20117;-87
2023/09/03 04:04:58;;;;;;;8.30;6.97;;;10.70;99.90;;;;;;4978332;28;20162;-88
2023/09/03 04:07:24;;;;;;;15.20;8.68;;;10.60;99.90;;;;;;4977770;28;20052;-87
2023/09/03 04:09:53;;;;;;;65.20;15.50;;;10.60;99.90;;;;;;4963226;28;20061;-87
2023/09/03 04:12:19;;;;;;;27.77;8.68;;;10.70;99.90;;;;;;4960559;28;20129;-87
2023/09/03 04:14:45;;;;;;;10.80;8.45;;;10.60;99.90;;;;;;4962087;28;20553;-86
2023/09/03 04:17:11;;;;;;;10.27;7.80;;;10.60;99.90;;;;;;4966060;28;20042;-86
2023/09/03 04:19:37;;;;;;;21.27;7.57;;;10.60;99.90;;;;;;4960871;28;20045;-87
2023/09/03 04:22:03;;;;;;;12.30;8.07;;;10.60;99.90;;;;;;4943296;28;20470;-87
2023/09/03 04:24:28;;;;;;;7.43;6.13;;;10.50;99.90;;;;;;4964430;28;20049;-87
2023/09/03 04:26:54;;;;;;;9.02;7.85;;;10.50;99.90;;;;;;4959807;28;20038;-87
2023/09/03 04:29:19;;;;;;;7.43;6.63;;;10.50;99.90;;;;;;4960497;28;20401;-87
2023/09/03 04:31:45;;;;;;;6.13;5.53;;;10.50;99.90;;;;;;4959528;28;20037;-87
2023/09/03 04:34:14;;;;;;;14.73;6.53;;;10.50;99.90;;;;;;4961800;28;20038;-87
2023/09/03 04:36:39;;;;;;;14.52;5.93;;;10.50;99.90;;;;;;4977213;28;20100;-87
2023/09/03 04:39:05;;;;;;;16.02;7.60;;;10.40;99.90;;;;;;4961970;28;20038;-87
2023/09/03 04:41:31;;;;;;;13.27;7.78;;;10.50;99.90;;;;;;4962129;28;20026;-87
2023/09/03 04:44:10;;;;;;;15.35;7.30;;;10.40;99.90;;;;;;4962976;28;20061;-88
2023/09/03 04:46:37;;;;;;;8.80;5.95;;;10.40;99.90;;;;;;4976349;28;20151;-87
2023/09/03 04:49:02;;;;;;;5.68;5.10;;;10.40;99.90;;;;;;4963853;28;20057;-87
2023/09/03 04:51:28;;;;;;;5.03;4.53;;;10.30;99.90;;;;;;4975996;28;20043;-87
2023/09/03 04:53:54;;;;;;;5.35;4.85;;;10.30;99.90;;;;;;4945179;28;20041;-87
2023/09/03 04:56:23;;;;;;;4.97;4.47;;;10.40;99.90;;;;;;4945438;28;20085;-88
2023/09/03 04:58:49;;;;;;;7.85;6.63;;;10.30;99.90;;;;;;4961692;28;20566;-88
2023/09/03 05:01:16;;;;;;;9.07;7.97;;;10.40;99.90;;;;;;4941863;28;20105;-87
2023/09/03 05:03:42;;;;;;;6.78;6.00;;;10.50;99.90;;;;;;4974959;28;20046;-88
2023/09/03 05:06:15;;;;;;;7.00;5.68;;;10.50;99.90;;;;;;4961865;28;20045;-87
2023/09/03 05:08:42;;;;;;;6.35;5.68;;;10.50;99.90;;;;;;4946686;28;20266;-88
2023/09/03 05:11:12;;;;;;;6.72;6.03;;;10.60;99.90;;;;;;4976761;28;20049;-88
2023/09/03 05:13:41;;;;;;;7.13;5.90;;;10.60;99.90;;;;;;4974966;28;20519;-88
2023/09/03 05:16:07;;;;;;;6.43;5.70;;;10.60;99.90;;;;;;4973494;28;20194;-88
2023/09/03 05:18:34;;;;;;;6.73;5.50;;;10.70;99.90;;;;;;4962297;28;20030;-87
2023/09/03 05:21:10;;;;;;;7.90;7.03;;;10.70;99.90;;;;;;4961090;28;20456;-87
2023/09/03 05:23:36;;;;;;;7.32;6.63;;;10.70;99.90;;;;;;4959790;28;20034;-87
2023/09/03 05:26:02;;;;;;;8.35;7.50;;;10.80;99.90;;;;;;4943174;28;20068;-88
2023/09/03 05:28:28;;;;;;;7.68;6.93;;;10.90;99.90;;;;;;4961328;28;20401;-88
2023/09/03 05:30:54;;;;;;;7.43;6.72;;;11.00;99.90;;;;;;4943269;28;20034;-87
2023/09/03 05:33:20;;;;;;;8.05;6.07;;;11.00;99.90;;;;;;4945459;28;20105;-88
2023/09/03 05:35:45;;;;;;;7.28;6.45;;;11.00;99.90;;;;;;4960336;28;20401;-87
2023/09/03 05:38:11;;;;;;;7.65;6.65;;;11.10;99.90;;;;;;4976441;28;20113;-88
2023/09/03 05:40:37;;;;;;;7.78;6.53;;;11.10;99.90;;;;;;4959957;28;20255;-88
2023/09/03 05:43:02;;;;;;;8.05;6.88;;;11.20;99.90;;;;;;4975405;28;20919;-87
2023/09/03 05:45:28;;;;;;;9.70;6.65;;;11.30;99.90;;;;;;4960343;28;20113;-87
2023/09/03 05:47:56;;;;;;;8.20;7.30;;;11.40;99.90;;;;;;4963792;28;20458;-88
2023/09/03 05:50:21;;;;;;;8.10;7.30;;;11.50;99.90;;;;;;4959812;28;20034;-88
2023/09/03 05:52:47;;;;;;;7.53;6.75;;;11.50;99.90;;;;;;4942820;28;20459;-87
2023/09/03 05:55:13;;;;;;;7.72;6.50;;;11.60;99.90;;;;;;4961432;28;20516;-87
2023/09/03 05:57:40;;;;;;;6.43;5.78;;;11.70;99.90;;;;;;4961246;28;20041;-87
2023/09/03 06:00:06;;;;;;;8.90;7.05;;;11.80;99.90;;;;;;4959708;28;20058;-88
2023/09/03 06:02:35;;;;;;;10.18;7.55;;;12.00;99.90;;;;;;4946315;28;20050;-88
2023/09/03 06:05:04;;;;;;;8.82;7.80;;;12.10;99.90;;;;;;4979939;28;20309;-88
2023/09/03 06:07:29;;;;;;;9.35;7.97;;;12.10;99.90;;;;;;4949591;28;20054;-87
2023/09/03 06:09:56;;;;;;;10.15;8.35;;;12.30;99.90;;;;;;4964215;28;20321;-87
2023/09/03 06:12:21;;;;;;;12.25;10.25;;;12.40;99.90;;;;;;4963733;28;20042;-87
2023/09/03 06:14:47;;;;;;;9.98;8.55;;;12.50;99.90;;;;;;4947097;28;20053;-87
2023/09/03 06:17:13;;;;;;;10.10;8.75;;;12.60;99.90;;;;;;4963800;28;20042;-87
2023/09/03 06:19:38;;;;;;;11.25;9.07;;;12.70;99.90;;;;;;4965738;28;20457;-87
2023/09/03 06:22:04;;;;;;;11.38;8.82;;;12.70;99.90;;;;;;4977070;28;20125;-88
2023/09/03 06:24:29;;;;;;;11.95;8.95;;;12.80;99.90;;;;;;4981217;28;20318;-88
2023/09/03 06:26:55;;;;;;;14.38;9.80;;;13.00;99.90;;;;;;4946320;28;20165;-87
2023/09/03 06:29:21;;;;;;;11.63;9.55;;;13.10;99.90;;;;;;4965127;28;20078;-88
2023/09/03 06:31:47;;;;;;;11.63;9.02;;;13.10;99.90;;;;;;4960858;28;20104;-87
2023/09/03 06:34:12;;;;;;;11.02;9.15;;;13.30;99.90;;;;;;4948095;28;20100;-87
2023/09/03 06:36:38;;;;;;;11.10;9.15;;;13.30;99.90;;;;;;4963741;28;20034;-88
2023/09/03 06:39:03;;;;;;;13.68;10.20;;;13.50;99.90;;;;;;4960071;28;20079;-87
2023/09/03 06:41:29;;;;;;;10.35;9.05;;;13.60;99.90;;;;;;4962608;28;20038;-88
2023/09/03 06:43:55;;;;;;;13.05;10.10;;;13.70;99.90;;;;;;4981448;28;20030;-88
2023/09/03 06:46:21;;;;;;;13.15;9.73;;;13.90;99.90;;;;;;4963955;28;20042;-88
2023/09/03 06:48:47;;;;;;;11.35;9.55;;;14.00;99.90;;;;;;4982188;28;20040;-87
2023/09/03 06:51:12;;;;;;;14.25;9.38;;;14.10;99.90;;;;;;4962907;28;20125;-87
2023/09/03 06:53:38;;;;;;;11.85;9.65;;;14.20;99.90;;;;;;4961021;28;20034;-87
2023/09/03 06:56:03;;;;;;;12.68;9.50;;;14.30;99.90;;;;;;4963134;28;20565;-87
2023/09/03 06:58:29;;;;;;;12.30;9.90;;;14.50;99.90;;;;;;4975640;28;20030;-87
2023/09/03 07:00:55;;;;;;;11.10;9.15;;;14.60;99.90;;;;;;4948444;28;20043;-88
2023/09/03 07:03:20;;;;;;;11.05;9.55;;;14.70;99.90;;;;;;4948337;28;20062;-88
2023/09/03 07:05:46;;;;;;;13.30;9.32;;;14.80;99.90;;;;;;4946449;28;20097;-87
2023/09/03 07:08:13;;;;;;;10.88;8.32;;;15.00;99.90;;;;;;4960426;28;20567;-87
2023/09/03 07:10:39;;;;;;;10.80;8.63;;;15.20;99.90;;;;;;4962540;28;20042;-87
2023/09/03 07:13:05;;;;;;;10.25;9.00;;;15.30;99.90;;;;;;4962659;28;20097;-86
2023/09/03 07:15:30;;;;;;;12.63;9.18;;;15.40;99.90;;;;;;4980365;28;20038;-87
2023/09/03 07:17:56;;;;;;;11.80;8.93;;;15.50;99.90;;;;;;4945708;28;20042;-87
2023/09/03 07:20:21;;;;;;;11.30;8.50;;;15.60;99.90;;;;;;4962505;28;20391;-88
2023/09/03 07:22:47;;;;;;;13.15;8.57;;;15.70;99.90;;;;;;4960404;28;20066;-87
2023/09/03 07:25:13;;;;;;;9.80;8.77;;;15.80;99.90;;;;;;4960528;28;20121;-87
2023/09/03 07:27:39;;;;;;;10.70;8.52;;;15.90;99.90;;;;;;4976961;28;20157;-88
2023/09/03 07:30:07;;;;;;;9.93;8.85;;;16.10;99.90;;;;;;4960242;28;20129;-87
2023/09/03 07:32:33;;;;;;;10.63;8.27;;;16.20;99.90;;;;;;4976511;28;20496;-87
2023/09/03 07:35:03;;;;;;;10.48;7.68;;;16.30;99.90;;;;;;4947841;28;20069;-87
2023/09/03 07:37:29;;;;;;;8.43;7.53;;;16.40;99.90;;;;;;4963306;28;20921;-87
2023/09/03 07:39:54;;;;;;;7.40;6.65;;;16.50;99.90;;;;;;4960758;28;20113;-87
2023/09/03 07:42:20;;;;;;;8.80;6.95;;;16.60;99.90;;;;;;4963188;28;20038;-88
2023/09/03 07:44:45;;;;;;;9.18;7.20;;;16.70;99.90;;;;;;4961033;28;20077;-88
2023/09/03 07:47:11;;;;;;;9.60;6.90;;;16.70;99.90;;;;;;4942625;28;20092;-87
2023/09/03 07:49:37;;;;;;;8.35;6.30;;;16.80;99.90;;;;;;4962945;28;20042;-88
2023/09/03 07:52:03;;;;;;;9.02;6.10;;;16.80;99.90;;;;;;4977071;28;20409;-88
2023/09/03 07:54:29;;;;;;;6.45;5.75;;;16.90;99.90;;;;;;4964210;28;20520;-88
2023/09/03 07:56:54;;;;;;;7.82;6.30;;;17.00;99.90;;;;;;4978472;28;20038;-87
2023/09/03 07:59:20;;;;;;;8.98;5.72;;;17.20;99.90;;;;;;4962582;28;20046;-87
2023/09/03 08:01:46;;;;;;;6.30;5.70;;;17.40;99.90;;;;;;4979190;28;20034;-87
2023/09/03 08:04:12;;;;;;;8.98;5.72;;;17.50;99.90;;;;;;4964320;28;20100;-88
2023/09/03 08:06:37;;;;;;;5.95;4.80;;;17.60;99.90;;;;;;4962842;28;20829;-88
2023/09/03 08:09:04;;;;;;;4.93;4.43;;;17.50;99.90;;;;;;4961524;28;20050;-88
2023/09/03 08:11:30;;;;;;;5.18;4.50;;;17.70;99.90;;;;;;4960090;28;20050;-89
2023/09/03 08:13:59;;;;;;;5.35;4.00;;;17.70;99.90;;;;;;4964231;28;20077;-87
2023/09/03 08:16:24;;;;;;;4.32;3.30;;;17.80;99.90;;;;;;4964760;28;20129;-87
2023/09/03 08:18:51;;;;;;;3.50;3.03;;;17.80;99.90;;;;;;4961620;28;20129;-87
2023/09/03 08:21:16;;;;;;;4.03;3.20;;;17.90;99.90;;;;;;4959971;28;20559;-88
2023/09/03 08:23:42;;;;;;;4.05;3.45;;;17.90;99.90;;;;;;4958864;28;20048;-88
2023/09/03 08:26:08;;;;;;;5.50;3.58;;;17.90;99.90;;;;;;4958928;28;20038;-87
2023/09/03 08:28:36;;;;;;;5.25;4.05;;;18.00;99.90;;;;;;4944173;28;20042;-88
2023/09/03 08:31:02;;;;;;;4.05;3.45;;;18.10;99.90;;;;;;4971711;28;20038;-87
2023/09/03 08:33:30;;;;;;;4.25;3.50;;;18.20;99.90;;;;;;4975207;28;20053;-87
2023/09/03 08:36:01;;;;;;;5.60;3.83;;;18.20;99.90;;;;;;4963532;28;20406;-88
2023/09/03 08:38:26;;;;;;;5.53;3.55;;;18.20;99.90;;;;;;4972618;28;20034;-88
2023/09/03 08:40:52;;;;;;;6.75;3.58;;;18.20;99.90;;;;;;4943627;28;20362;-87
2023/09/03 08:43:20;;;;;;;6.32;4.55;;;18.40;99.90;;;;;;4977206;28;20121;-88
2023/09/03 08:45:51;;;;;;;5.93;4.18;;;18.30;99.90;;;;;;4959144;28;20041;-90
2023/09/03 08:48:16;;;;;;;5.10;3.53;;;18.40;99.90;;;;;;4979384;28;20124;-87
2023/09/03 08:50:46;;;;;;;5.25;3.50;;;18.70;99.90;;;;;;4961477;28;20134;-88
2023/09/03 08:53:13;;;;;;;5.68;2.80;;;18.80;99.90;;;;;;4959506;28;20485;-88
2023/09/03 08:55:41;;;;;;;4.32;2.70;;;18.80;99.90;;;;;;4960971;28;20409;-89
2023/09/03 08:58:07;;;;;;;5.47;2.92;;;18.90;99.90;;;;;;4946375;28;20042;-88
2023/09/03 09:00:33;;;;;;;4.05;2.72;;;19.10;99.90;;;;;;4959108;28;20117;-89
2023/09/03 09:03:05;;;;;;;5.05;2.95;;;19.20;99.90;;;;;;4944558;28;20042;-88
2023/09/03 09:05:32;;;;;;;5.43;2.55;;;19.30;99.90;;;;;;4975337;28;20034;-88
2023/09/03 09:07:59;;;;;;;2.88;2.20;;;19.30;99.90;;;;;;4959898;28;20165;-88
2023/09/03 09:10:30;;;;;;;5.03;2.33;;;19.40;99.90;;;;;;4972804;28;20281;-88
2023/09/03 09:13:04;;;;;;;3.28;2.25;;;19.50;99.90;;;;;;4959046;28;20211;-88
2023/09/03 09:15:30;;;;;;;2.53;2.13;;;19.40;99.90;;;;;;4945558;28;20042;-88
2023/09/03 09:17:55;;;;;;;3.85;2.00;;;19.60;99.90;;;;;;4977849;28;20042;-87
2023/09/03 09:20:21;;;;;;;2.78;1.60;;;19.70;99.90;;;;;;4977791;28;20156;-88
2023/09/03 09:22:50;;;;;;;2.75;2.10;;;19.70;99.90;;;;;;4976336;28;20122;-89
2023/09/03 09:25:26;;;;;;;2.40;2.00;;;19.80;99.90;;;;;;4963124;28;20073;-88
2023/09/03 09:27:56;;;;;;;4.07;1.88;;;19.70;99.90;;;;;;4961382;28;20499;-88
2023/09/03 09:30:27;;;;;;;4.15;2.15;;;19.90;99.90;;;;;;4960175;28;20089;-87
2023/09/03 09:33:10;;;;;;;3.33;1.80;;;19.90;99.90;;;;;;4962472;28;20520;-89
2023/09/03 09:35:35;;;;;;;3.10;2.05;;;19.90;99.90;;;;;;4978122;28;20034;-88
2023/09/03 09:38:07;;;;;;;2.10;1.63;;;19.80;99.90;;;;;;4965446;28;20234;-88
2023/09/03 09:40:36;;;;;;;2.38;1.80;;;20.00;99.90;;;;;;4962678;28;20047;-89
2023/09/03 09:43:07;;;;;;;2.53;1.80;;;20.00;99.90;;;;;;4963913;28;20034;-87
2023/09/03 09:45:33;;;;;;;2.85;2.50;;;20.30;99.90;;;;;;4966586;28;20052;-88
2023/09/03 09:48:07;;;;;;;4.10;2.90;;;19.90;99.90;;;;;;4966538;28;20575;-88
2023/09/03 09:50:38;;;;;;;3.50;2.47;;;20.10;99.90;;;;;;4950612;28;20073;-87
2023/09/03 09:53:06;;;;;;;4.00;1.95;;;20.20;99.90;;;;;;4965406;28;20038;-87
2023/09/03 09:55:34;;;;;;;3.22;2.08;;;20.40;99.90;;;;;;4949992;28;20102;-88
2023/09/03 09:58:01;;;;;;;3.83;2.47;;;20.40;99.90;;;;;;4961023;28;20061;-88
2023/09/03 10:00:45;;;;;;;3.30;1.98;;;20.30;99.90;;;;;;4945237;28;20287;-88
2023/09/03 10:03:12;;;;;;;2.42;1.70;;;20.30;99.90;;;;;;4980322;28;20463;-87
2023/09/03 10:05:47;;;;;;;3.03;1.90;;;20.60;99.90;;;;;;4965105;28;20070;-87
2023/09/03 10:08:12;;;;;;;3.75;1.90;;;20.40;99.90;;;;;;4962438;28;20125;-86
2023/09/03 10:10:39;;;;;;;3.00;2.13;;;20.60;99.90;;;;;;4980780;28;20509;-88
2023/09/03 10:13:06;;;;;;;3.38;2.03;;;20.50;99.90;;;;;;4947023;28;20461;-87
2023/09/03 10:15:32;;;;;;;3.08;1.52;;;20.60;99.90;;;;;;4944642;28;20042;-88
2023/09/03 10:18:01;;;;;;;2.20;1.48;;;20.60;99.90;;;;;;4965332;28;20076;-88
2023/09/03 10:20:28;;;;;;;2.95;1.80;;;20.70;99.90;;;;;;4962293;28;20566;-87
2023/09/03 10:23:01;;;;;;;2.67;1.80;;;20.80;99.90;;;;;;4962692;28;20030;-88
2023/09/03 10:25:29;;;;;;;2.85;1.80;;;20.90;99.90;;;;;;4962938;28;20038;-88
2023/09/03 10:28:05;;;;;;;3.55;1.40;;;20.90;99.90;;;;;;4949261;28;20316;-89
2023/09/03 10:30:39;;;;;;;2.53;1.67;;;21.00;99.90;;;;;;4965807;28;20137;-88
2023/09/03 10:33:08;;;;;;;3.30;2.17;;;21.10;99.90;;;;;;4964792;28;20053;-87
2023/09/03 10:35:34;;;;;;;2.95;1.80;;;21.10;99.90;;;;;;4978982;28;20074;-88
2023/09/03 10:38:00;;;;;;;2.67;1.67;;;21.10;99.90;;;;;;4949839;28;20077;-88
2023/09/03 10:40:29;;;;;;;1.95;1.60;;;21.10;99.90;;;;;;4960059;28;20290;-87
2023/09/03 10:43:14;;;;;;;2.90;1.52;;;21.30;99.90;;;;;;4962651;28;20056;-88
2023/09/03 10:46:00;;;;;;;3.70;1.80;;;21.50;99.90;;;;;;4944281;28;20054;-87
2023/09/03 10:48:26;;;;;;;3.20;1.98;;;21.60;99.90;;;;;;4962843;28;20541;-87
2023/09/03 10:50:52;;;;;;;1.95;1.40;;;21.60;99.90;;;;;;4980581;28;20226;-87
2023/09/03 10:53:40;;;;;;;2.50;1.50;;;21.70;99.90;;;;;;4970722;28;20386;-88
2023/09/03 10:56:14;;;;;;;2.63;1.55;;;21.60;99.90;;;;;;4979707;28;20079;-87
2023/09/03 10:59:01;;;;;;;1.90;1.42;;;21.60;99.90;;;;;;4980786;28;20038;-87
2023/09/03 11:01:33;;;;;;;1.60;1.30;;;21.50;99.90;;;;;;4949117;28;20476;-87
2023/09/03 11:04:04;;;;;;;1.77;1.30;;;21.80;99.90;;;;;;4958810;28;20074;-87
2023/09/03 11:06:42;;;;;;;2.78;1.50;;;22.00;99.90;;;;;;4977170;28;20105;-87
2023/09/03 11:09:25;;;;;;;3.00;1.70;;;22.10;99.90;;;;;;4977671;28;20054;-87
2023/09/03 11:11:59;;;;;;;5.10;1.77;;;21.70;99.90;;;;;;4944458;28;20090;-87
2023/09/03 11:14:29;;;;;;;1.97;1.40;;;21.70;99.90;;;;;;4948648;28;20046;-87
2023/09/03 11:16:58;;;;;;;2.38;1.20;;;22.00;99.90;;;;;;4964890;28;20816;-86
2023/09/03 11:19:40;;;;;;;3.42;1.40;;;22.10;99.90;;;;;;4980357;28;20509;-85
2023/09/03 11:22:12;;;;;;;2.05;1.40;;;22.20;99.90;;;;;;4975958;28;20038;-86
2023/09/03 11:24:46;;;;;;;2.13;1.50;;;22.20;99.90;;;;;;4963794;28;20038;-85
2023/09/03 11:27:11;;;;;;;2.20;1.45;;;22.40;99.90;;;;;;4980107;28;20044;-86
2023/09/03 11:29:37;;;;;;;2.88;1.50;;;22.40;99.90;;;;;;4961321;28;20038;-86
2023/09/03 11:32:06;;;;;;;1.80;1.52;;;22.30;99.90;;;;;;4961492;28;20046;-87
2023/09/03 11:34:31;;;;;;;2.40;1.70;;;22.10;99.90;;;;;;4960329;28;20386;-86
2023/09/03 11:36:57;;;;;;;2.15;1.55;;;22.40;99.90;;;;;;4959614;28;20038;-86
2023/09/03 11:39:23;;;;;;;2.35;1.60;;;22.60;99.90;;;;;;4949282;28;20133;-86
2023/09/03 11:41:49;;;;;;;1.75;1.55;;;22.80;99.90;;;;;;4971285;28;20120;-87
2023/09/03 11:44:27;;;;;;;2.67;1.95;;;22.90;99.90;;;;;;4966791;28;20712;-87
2023/09/03 11:47:05;;;;;;;1.80;1.30;;;22.90;99.90;;;;;;4967602;28;20050;-86
2023/09/03 11:49:31;;;;;;;3.03;1.50;;;22.80;99.90;;;;;;4978285;28;20050;-86
2023/09/03 11:52:13;;;;;;;2.20;1.58;;;22.70;99.90;;;;;;4959949;28;20046;-87
2023/09/03 11:54:39;;;;;;;1.77;1.27;;;22.50;99.90;;;;;;4960583;28;20057;-86
2023/09/03 11:57:06;;;;;;;2.20;1.50;;;22.60;99.90;;;;;;4961380;28;20131;-85
2023/09/03 11:59:32;;;;;;;2.67;1.40;;;22.30;99.90;;;;;;4974567;28;20314;-86
2023/09/03 12:01:58;;;;;;;2.78;1.40;;;22.50;99.90;;;;;;4978687;28;20053;-86
2023/09/03 12:04:24;;;;;;;2.40;1.30;;;22.70;99.90;;;;;;4947379;28;20034;-86
2023/09/03 12:06:49;;;;;;;2.20;1.20;;;23.10;99.90;;;;;;4959991;28;20050;-86
2023/09/03 12:09:23;;;;;;;2.85;1.23;;;23.40;99.90;;;;;;4961216;28;20093;-85
2023/09/03 12:11:50;;;;;;;2.53;1.38;;;23.10;99.90;;;;;;4945528;28;20060;-86
2023/09/03 12:14:29;;;;;;;1.92;1.45;;;22.80;99.90;;;;;;4961335;28;20144;-86
2023/09/03 12:16:54;;;;;;;2.80;1.50;;;22.90;99.90;;;;;;4960025;28;20070;-86
2023/09/03 12:19:20;;;;;;;2.10;1.30;;;23.10;99.90;;;;;;4974737;28;20068;-87
2023/09/03 12:21:50;;;;;;;2.75;1.58;;;23.00;99.90;;;;;;4941591;28;20035;-87
2023/09/03 12:24:16;;;;;;;3.75;1.80;;;23.50;99.90;;;;;;4961199;28;20126;-86
2023/09/03 12:26:42;;;;;;;2.25;1.30;;;23.80;99.90;;;;;;4946463;28;20099;-87
2023/09/03 12:29:22;;;;;;;2.88;1.40;;;23.90;99.90;;;;;;4978326;28;20038;-87
2023/09/03 12:31:47;;;;;;;2.50;1.52;;;24.40;99.90;;;;;;4939134;28;20046;-86
2023/09/03 12:34:15;;;;;;;2.97;1.40;;;24.40;99.90;;;;;;4946479;28;20038;-86
2023/09/03 12:36:57;;;;;;;1.67;1.58;;;24.10;99.90;;;;;;4945489;28;20569;-86
2023/09/03 12:39:41;;;;;;;4.05;2.00;;;23.50;99.90;;;;;;4976681;28;20065;-86
2023/09/03 12:42:08;;;;;;;1.85;1.38;;;23.80;99.90;;;;;;4961029;28;20030;-86
2023/09/03 12:44:37;;;;;;;1.80;1.50;;;23.90;99.90;;;;;;4944049;28;20203;-86
2023/09/03 12:47:03;;;;;;;2.55;1.80;;;24.60;99.90;;;;;;4946820;28;20049;-86
2023/09/03 12:49:29;;;;;;;2.92;1.45;;;23.80;99.90;;;;;;4960090;28;20046;-86